createdAt,value
2022-07-28T00:01:13.140Z,2.87
2022-07-28T00:03:40.493Z,3.62
2022-07-28T00:06:07.466Z,3.33
2022-07-28T00:08:34.253Z,3.20
2022-07-28T00:11:01.006Z,3.08
2022-07-28T00:13:27.774Z,3.53
2022-07-28T00:15:54.608Z,3.50
2022-07-28T00:18:21.417Z,4.62
2022-07-28T00:20:48.404Z,3.03
2022-07-28T00:23:15.298Z,3.00
2022-07-28T00:25:42.236Z,3.25
2022-07-28T00:28:09.015Z,3.08
2022-07-28T00:30:36.452Z,3.08
2022-07-28T00:33:03.506Z,4.12
2022-07-28T00:35:31.723Z,3.37
2022-07-28T00:37:59.435Z,3.67
2022-07-28T00:40:46.925Z,2.85
2022-07-28T00:43:14.075Z,3.35
2022-07-28T00:45:40.860Z,3.40
2022-07-28T00:48:07.770Z,3.30
2022-07-28T00:50:34.636Z,3.12
2022-07-28T00:53:01.560Z,3.08
2022-07-28T00:55:28.355Z,2.95
2022-07-28T00:57:55.245Z,2.87
2022-07-28T01:00:22.365Z,3.08
2022-07-28T01:02:49.799Z,3.10
2022-07-28T01:05:16.705Z,3.55
2022-07-28T01:08:52.512Z,3.00
2022-07-28T01:11:32.756Z,3.20
2022-07-28T01:14:26.559Z,3.58
2022-07-28T01:17:09.089Z,3.35
2022-07-28T01:20:05.898Z,2.90
2022-07-28T01:22:38.892Z,3.92
2022-07-28T01:25:21.676Z,3.10
2022-07-28T01:27:48.418Z,3.65
2022-07-28T01:30:34.340Z,3.15
2022-07-28T01:33:41.435Z,3.40
2022-07-28T01:36:29.521Z,3.08
2022-07-28T01:38:57.141Z,3.25
2022-07-28T01:41:27.940Z,2.90
2022-07-28T01:44:03.235Z,2.92
2022-07-28T01:46:30.587Z,3.28
2022-07-28T01:48:59.008Z,3.65
2022-07-28T01:51:29.485Z,3.60
2022-07-28T01:53:59.670Z,3.85
2022-07-28T01:56:28.765Z,3.40
2022-07-28T01:58:58.275Z,3.78
2022-07-28T02:03:54.685Z,4.28
2022-07-28T02:06:22.806Z,4.72
2022-07-28T02:08:51.762Z,4.12
2022-07-28T02:11:37.474Z,4.35
2022-07-28T02:14:05.213Z,3.87
2022-07-28T02:16:32.358Z,4.00
2022-07-28T02:19:00.846Z,4.40
2022-07-28T02:21:31.419Z,4.45
2022-07-28T02:24:00.091Z,4.68
2022-07-28T02:26:35.618Z,5.25
2022-07-28T02:29:05.401Z,5.43
2022-07-28T02:31:57.135Z,5.37
2022-07-28T02:34:27.999Z,4.40
2022-07-28T02:36:59.094Z,5.25
2022-07-28T02:39:44.795Z,5.65
2022-07-28T02:42:30.924Z,4.28
2022-07-28T02:45:00.023Z,6.37
2022-07-28T02:47:31.549Z,5.50
2022-07-28T02:50:02.154Z,6.43
2022-07-28T02:52:29.966Z,6.62
2022-07-28T02:54:58.973Z,6.68
2022-07-28T02:57:27.325Z,7.10
2022-07-28T02:59:55.747Z,7.47
2022-07-28T03:02:23.006Z,8.02
2022-07-28T03:04:57.078Z,6.40
2022-07-28T03:07:24.098Z,6.45
2022-07-28T03:09:50.973Z,6.53
2022-07-28T03:12:21.967Z,6.80
2022-07-28T03:14:49.282Z,7.05
2022-07-28T03:17:16.708Z,7.55
2022-07-28T03:19:43.654Z,6.97
2022-07-28T03:22:10.780Z,7.22
2022-07-28T03:24:40.821Z,8.30
2022-07-28T03:27:28.785Z,8.00
2022-07-28T03:30:06.355Z,7.97
2022-07-28T03:32:36.785Z,7.60
2022-07-28T03:35:05.085Z,8.05
2022-07-28T03:37:49.995Z,8.40
2022-07-28T03:40:17.756Z,6.87
2022-07-28T03:42:47.825Z,8.15
2022-07-28T03:45:18.022Z,7.68
2022-07-28T03:47:56.302Z,7.65
2022-07-28T03:50:24.316Z,7.62
2022-07-28T03:52:51.725Z,7.37
2022-07-28T03:55:19.167Z,7.12
2022-07-28T03:57:46.126Z,7.93
2022-07-28T04:00:14.868Z,6.90
2022-07-28T04:02:43.995Z,8.10
2022-07-28T04:05:12.812Z,7.10
2022-07-28T04:07:40.835Z,7.95
2022-07-28T04:10:10.156Z,6.78
2022-07-28T04:12:47.867Z,5.80
2022-07-28T04:15:15.698Z,7.12
2022-07-28T04:17:43.566Z,7.40
2022-07-28T04:20:11.838Z,6.68
2022-07-28T04:22:38.954Z,6.30
2022-07-28T04:25:07.025Z,6.18
2022-07-28T04:27:35.753Z,7.20
2022-07-28T04:30:05.646Z,6.00
2022-07-28T04:32:32.553Z,6.65
2022-07-28T04:34:59.486Z,7.03
2022-07-28T04:37:27.461Z,7.12
2022-07-28T04:39:59.666Z,6.82
2022-07-28T04:42:26.717Z,6.40
2022-07-28T04:44:53.498Z,6.53
2022-07-28T04:47:20.284Z,6.20
2022-07-28T04:49:47.116Z,5.90
2022-07-28T04:52:14.145Z,6.68
2022-07-28T04:54:41.005Z,6.18
2022-07-28T04:57:12.009Z,5.60
2022-07-28T04:59:39.875Z,6.25
2022-07-28T05:02:06.974Z,5.97
2022-07-28T05:04:33.773Z,6.55
2022-07-28T05:07:02.289Z,5.12
2022-07-28T05:09:39.565Z,4.35
2022-07-28T05:12:06.821Z,5.18
2022-07-28T05:14:33.595Z,5.03
2022-07-28T05:17:00.452Z,4.55
2022-07-28T05:19:27.359Z,5.68
2022-07-28T05:21:54.066Z,5.05
2022-07-28T05:24:20.855Z,4.82
2022-07-28T05:26:47.595Z,4.97
2022-07-28T05:29:14.374Z,4.55
2022-07-28T05:31:41.200Z,5.40
2022-07-28T05:34:07.975Z,4.53
2022-07-28T05:36:36.186Z,4.62
2022-07-28T05:39:03.738Z,4.53
2022-07-28T05:41:30.597Z,5.85
2022-07-28T05:43:58.544Z,5.57
2022-07-28T05:46:25.413Z,4.85
2022-07-28T05:48:53.133Z,5.10
2022-07-28T05:51:19.945Z,4.85
2022-07-28T05:53:46.925Z,4.60
2022-07-28T05:56:13.755Z,4.72
2022-07-28T05:58:40.634Z,5.50
2022-07-28T06:01:07.558Z,4.62
2022-07-28T06:03:41.444Z,5.57
2022-07-28T06:06:15.828Z,4.87
2022-07-28T06:08:44.024Z,4.95
2022-07-28T06:11:11.936Z,5.20
2022-07-28T06:13:49.614Z,4.93
2022-07-28T06:16:16.546Z,4.47
2022-07-28T06:18:44.150Z,4.55
2022-07-28T06:21:11.143Z,4.78
2022-07-28T06:23:38.294Z,4.45
2022-07-28T06:26:05.124Z,4.72
2022-07-28T06:28:33.156Z,4.93
2022-07-28T06:30:59.986Z,4.37
2022-07-28T06:33:26.914Z,4.22
2022-07-28T06:35:53.796Z,4.72
2022-07-28T06:38:20.866Z,4.90
2022-07-28T06:40:48.596Z,4.47
2022-07-28T06:43:15.460Z,4.75
2022-07-28T06:45:42.465Z,4.60
2022-07-28T06:48:09.384Z,4.28
2022-07-28T06:50:39.485Z,4.28
2022-07-28T06:53:06.556Z,4.57
2022-07-28T06:55:35.522Z,4.03
2022-07-28T06:58:06.218Z,4.30
2022-07-28T07:00:33.186Z,4.22
2022-07-28T07:03:00.765Z,4.65
2022-07-28T07:05:30.084Z,2.83
2022-07-28T07:07:56.888Z,4.30
2022-07-28T07:10:24.098Z,4.25
2022-07-28T07:12:51.036Z,4.40
2022-07-28T07:15:17.906Z,4.07
2022-07-28T07:17:44.735Z,4.10
2022-07-28T07:20:13.624Z,3.60
2022-07-28T07:22:45.287Z,4.00
2022-07-28T07:25:15.382Z,4.45
2022-07-28T07:27:42.416Z,3.58
2022-07-28T07:30:10.156Z,4.68
2022-07-28T07:32:37.455Z,5.12
2022-07-28T07:35:05.113Z,4.70
2022-07-28T07:37:32.870Z,5.05
2022-07-28T07:40:00.494Z,4.90
2022-07-28T07:42:28.007Z,4.80
2022-07-28T07:44:55.178Z,4.72
2022-07-28T07:47:22.155Z,4.90
2022-07-28T07:49:49.526Z,4.43
2022-07-28T07:52:16.315Z,4.57
2022-07-28T07:54:43.669Z,4.53
2022-07-28T07:57:10.574Z,4.18
2022-07-28T07:59:37.557Z,4.90
2022-07-28T08:02:04.652Z,4.15
2022-07-28T08:04:31.908Z,4.85
2022-07-28T08:07:05.100Z,5.00
2022-07-28T08:09:33.166Z,4.45
2022-07-28T08:12:00.261Z,4.28
2022-07-28T08:14:27.096Z,4.55
2022-07-28T08:16:56.619Z,4.90
2022-07-28T08:19:23.700Z,4.25
2022-07-28T08:21:52.066Z,5.03
2022-07-28T08:24:31.672Z,4.53
2022-07-28T08:27:05.096Z,4.43
2022-07-28T08:29:32.575Z,4.05
2022-07-28T08:32:01.501Z,4.15
2022-07-28T08:34:33.178Z,4.18
2022-07-28T08:37:02.859Z,3.60
2022-07-28T08:39:30.975Z,3.92
2022-07-28T08:42:07.592Z,3.85
2022-07-28T08:44:55.277Z,4.03
2022-07-28T08:47:22.489Z,3.92
2022-07-28T08:49:52.078Z,3.78
2022-07-28T08:52:21.726Z,3.58
2022-07-28T08:54:50.154Z,3.72
2022-07-28T08:57:23.075Z,4.27
2022-07-28T08:59:50.325Z,4.10
2022-07-28T09:02:17.621Z,3.60
2022-07-28T09:04:46.499Z,3.83
2022-07-28T09:07:13.880Z,3.65
2022-07-28T09:09:40.776Z,3.78
2022-07-28T09:12:08.234Z,3.47
2022-07-28T09:14:35.174Z,3.65
2022-07-28T09:17:03.149Z,3.53
2022-07-28T09:19:34.053Z,3.47
2022-07-28T09:22:02.977Z,3.28
2022-07-28T09:24:36.613Z,3.70
2022-07-28T09:27:08.275Z,3.40
2022-07-28T09:29:36.935Z,3.40
2022-07-28T09:32:04.979Z,2.75
2022-07-28T09:34:46.377Z,2.90
2022-07-28T09:37:26.501Z,3.22
2022-07-28T09:39:58.345Z,3.55
2022-07-28T09:42:25.994Z,3.00
2022-07-28T09:45:24.292Z,3.12
2022-07-28T09:48:12.147Z,3.42
2022-07-28T09:50:41.015Z,3.47
2022-07-28T09:53:28.515Z,3.92
2022-07-28T09:56:01.291Z,3.83
2022-07-28T09:58:30.336Z,3.03
2022-07-28T10:01:08.045Z,3.12
2022-07-28T10:03:36.883Z,3.60
2022-07-28T10:06:08.508Z,3.47
2022-07-28T10:08:47.445Z,3.03
2022-07-28T10:14:03.182Z,3.17
2022-07-28T10:16:36.978Z,3.20
2022-07-28T10:19:06.450Z,2.65
2022-07-28T10:21:40.597Z,2.50
2022-07-28T10:24:09.513Z,3.00
2022-07-28T10:26:44.988Z,3.08
2022-07-28T10:29:18.637Z,3.20
2022-07-28T10:31:55.164Z,2.75
2022-07-28T10:34:32.085Z,2.70
2022-07-28T10:37:03.095Z,3.00
2022-07-28T10:39:39.625Z,3.20
2022-07-28T10:42:11.276Z,3.05
2022-07-28T10:44:39.146Z,3.03
2022-07-28T10:47:18.413Z,3.20
2022-07-28T10:49:50.400Z,2.60
2022-07-28T10:55:08.643Z,3.15
2022-07-28T10:57:41.896Z,3.08
2022-07-28T11:00:13.210Z,3.25
2022-07-28T11:02:52.544Z,3.28
2022-07-28T11:05:36.561Z,3.30
2022-07-28T11:08:06.538Z,4.03
2022-07-28T11:11:07.695Z,3.42
2022-07-28T11:13:41.059Z,3.30
2022-07-28T11:16:14.648Z,3.37
2022-07-28T11:19:41.979Z,3.37
2022-07-28T11:22:19.215Z,3.62
2022-07-28T11:25:18.837Z,2.93
2022-07-28T11:27:54.630Z,3.15
2022-07-28T11:30:37.501Z,3.60
2022-07-28T11:33:07.254Z,4.43
2022-07-28T11:35:40.420Z,3.17
2022-07-28T11:38:09.377Z,4.75
2022-07-28T11:40:44.206Z,3.90
2022-07-28T11:43:36.006Z,3.75
2022-07-28T11:46:05.303Z,3.87
2022-07-28T11:48:37.327Z,4.25
2022-07-28T11:51:04.249Z,4.05
2022-07-28T11:53:41.907Z,3.67
2022-07-28T11:56:10.727Z,3.45
2022-07-28T11:58:38.956Z,3.53
2022-07-28T12:01:17.757Z,3.87
2022-07-28T12:03:49.197Z,3.80
2022-07-28T12:06:29.072Z,4.15
2022-07-28T12:09:05.477Z,3.55
2022-07-28T12:11:34.435Z,3.05
2022-07-28T12:14:04.454Z,3.22
2022-07-28T12:16:33.507Z,3.60
2022-07-28T12:21:47.480Z,3.58
2022-07-28T12:24:27.926Z,3.87
2022-07-28T12:26:56.035Z,3.60
2022-07-28T12:29:24.107Z,3.25
2022-07-28T12:32:06.838Z,3.17
2022-07-28T12:34:35.336Z,3.30
2022-07-28T12:37:09.995Z,3.20
2022-07-28T12:39:39.907Z,2.85
2022-07-28T12:42:10.018Z,3.35
2022-07-28T12:44:37.856Z,3.08
2022-07-28T12:47:08.397Z,3.67
2022-07-28T12:49:36.586Z,3.17
2022-07-28T12:52:25.594Z,3.40
2022-07-28T12:54:55.737Z,3.15
2022-07-28T12:57:48.881Z,3.97
2022-07-28T13:00:20.129Z,3.53
2022-07-28T13:02:48.551Z,3.03
2022-07-28T13:05:55.631Z,3.28
2022-07-28T13:08:27.603Z,3.62
2022-07-28T13:10:58.593Z,3.92
2022-07-28T13:13:26.154Z,3.58
2022-07-28T13:16:31.797Z,3.62
2022-07-28T13:19:02.882Z,3.70
2022-07-28T13:21:56.605Z,4.50
2022-07-28T13:24:24.456Z,3.72
2022-07-28T13:26:51.355Z,4.47
2022-07-28T13:29:18.335Z,3.87
2022-07-28T13:31:45.195Z,4.05
2022-07-28T13:34:12.292Z,3.60
2022-07-28T13:36:39.457Z,3.53
2022-07-28T13:39:07.979Z,3.30
2022-07-28T13:41:42.080Z,3.47
2022-07-28T13:44:21.636Z,3.30
2022-07-28T13:46:50.049Z,3.70
2022-07-28T13:49:17.408Z,3.65
2022-07-28T13:51:48.533Z,3.92
2022-07-28T13:54:18.521Z,5.62
2022-07-28T13:56:45.791Z,3.92
2022-07-28T13:59:13.845Z,3.53
2022-07-28T14:01:42.465Z,3.55
2022-07-28T14:04:15.001Z,3.78
2022-07-28T14:06:45.328Z,3.37
2022-07-28T14:09:18.193Z,3.90
2022-07-28T14:11:49.576Z,3.83
2022-07-28T14:14:20.540Z,3.58
2022-07-28T14:16:52.402Z,3.72
2022-07-28T14:19:23.342Z,3.10
2022-07-28T14:22:10.510Z,3.35
2022-07-28T14:24:40.135Z,3.80
2022-07-28T14:27:07.055Z,3.37
2022-07-28T14:29:33.864Z,3.65
2022-07-28T14:32:00.689Z,3.62
2022-07-28T14:34:27.496Z,2.95
2022-07-28T14:36:56.496Z,3.35
2022-07-28T14:41:50.833Z,3.15
2022-07-28T14:44:24.401Z,3.10
2022-07-28T14:46:52.235Z,3.10
2022-07-28T14:49:19.176Z,3.55
2022-07-28T14:51:46.155Z,3.37
2022-07-28T14:54:13.521Z,3.30
2022-07-28T14:56:40.575Z,2.53
2022-07-28T14:59:07.418Z,3.25
2022-07-28T15:01:36.110Z,2.97
2022-07-28T15:04:03.796Z,3.35
2022-07-28T15:06:30.636Z,3.47
2022-07-28T15:08:58.633Z,3.62
2022-07-28T15:11:26.336Z,3.20
2022-07-28T15:13:53.095Z,3.72
2022-07-28T15:16:19.995Z,3.58
2022-07-28T15:18:46.885Z,3.30
2022-07-28T15:21:16.807Z,3.00
2022-07-28T15:23:44.308Z,3.55
2022-07-28T15:26:11.548Z,3.30
2022-07-28T15:28:38.836Z,3.00
2022-07-28T15:31:07.801Z,3.55
2022-07-28T15:33:47.750Z,3.72
2022-07-28T15:36:15.865Z,3.20
2022-07-28T15:38:47.446Z,3.47
2022-07-28T15:41:16.629Z,3.50
2022-07-28T15:43:43.700Z,3.42
2022-07-28T15:46:13.165Z,3.33
2022-07-28T15:48:43.417Z,3.25
2022-07-28T15:51:10.731Z,2.95
2022-07-28T15:53:38.306Z,3.22
2022-07-28T15:56:05.534Z,3.00
2022-07-28T15:58:32.465Z,3.28
2022-07-28T16:01:01.007Z,3.22
2022-07-28T16:03:29.795Z,3.40
2022-07-28T16:05:57.376Z,2.90
2022-07-28T16:08:24.326Z,3.83
2022-07-28T16:10:54.245Z,3.15
2022-07-28T16:13:31.338Z,3.17
2022-07-28T16:16:04.408Z,3.05
2022-07-28T16:18:32.176Z,3.50
2022-07-28T16:20:59.216Z,3.20
2022-07-28T16:23:26.143Z,3.50
2022-07-28T16:25:53.082Z,3.53
2022-07-28T16:28:19.938Z,3.00
2022-07-28T16:30:48.172Z,2.70
2022-07-28T16:33:15.006Z,3.03
2022-07-28T16:35:41.836Z,3.22
2022-07-28T16:38:08.655Z,2.83
2022-07-28T16:40:35.583Z,3.03
2022-07-28T16:43:04.437Z,2.87
2022-07-28T16:45:31.730Z,2.70
2022-07-28T16:47:59.314Z,3.05
2022-07-28T16:50:26.097Z,3.22
2022-07-28T16:52:55.738Z,3.00
2022-07-28T16:55:24.615Z,2.87
2022-07-28T16:57:54.160Z,3.47
2022-07-28T17:00:21.602Z,3.35
2022-07-28T17:02:48.477Z,3.33
2022-07-28T17:05:15.376Z,3.45
2022-07-28T17:07:45.536Z,3.00
2022-07-28T17:10:15.448Z,3.45
2022-07-28T17:12:49.696Z,3.05
2022-07-28T17:15:21.959Z,2.87
2022-07-28T17:17:51.032Z,3.50
2022-07-28T17:20:19.104Z,3.62
2022-07-28T17:22:45.924Z,3.28
2022-07-28T17:25:42.939Z,3.17
2022-07-28T17:27:59.911Z,3.42
2022-07-28T17:30:29.820Z,2.70
2022-07-28T17:33:00.026Z,2.97
2022-07-28T17:35:31.918Z,3.10
2022-07-28T17:38:03.912Z,3.60
2022-07-28T17:40:30.936Z,3.60
2022-07-28T17:42:57.825Z,2.90
2022-07-28T17:45:25.083Z,3.53
2022-07-28T17:47:51.995Z,3.15
2022-07-28T17:50:19.004Z,3.40
2022-07-28T17:52:46.781Z,3.62
2022-07-28T17:55:40.761Z,3.17
2022-07-28T17:58:28.113Z,3.35
2022-07-28T18:01:09.579Z,2.83
2022-07-28T18:03:56.577Z,3.58
2022-07-28T18:06:35.514Z,3.17
2022-07-28T18:09:07.912Z,3.35
2022-07-28T18:11:57.428Z,3.72
2022-07-28T18:14:27.849Z,3.75
2022-07-28T18:16:55.105Z,3.83
2022-07-28T18:19:22.003Z,4.00
2022-07-28T18:21:49.373Z,3.75
2022-07-28T18:24:16.903Z,3.45
2022-07-28T18:26:44.194Z,3.35
2022-07-28T18:29:10.999Z,3.53
2022-07-28T18:31:43.825Z,3.15
2022-07-28T18:34:13.734Z,3.20
2022-07-28T18:36:40.843Z,4.00
2022-07-28T18:39:08.726Z,3.28
2022-07-28T18:41:46.176Z,3.70
2022-07-28T18:44:18.561Z,4.28
2022-07-28T18:46:46.246Z,4.50
2022-07-28T18:49:13.456Z,4.90
2022-07-28T18:51:44.229Z,4.55
2022-07-28T18:54:12.758Z,4.32
2022-07-28T18:56:40.096Z,4.25
2022-07-28T18:59:07.656Z,4.43
2022-07-28T19:01:34.715Z,4.53
2022-07-28T19:04:01.823Z,4.25
2022-07-28T19:06:29.667Z,4.55
2022-07-28T19:08:56.477Z,3.53
2022-07-28T19:11:23.375Z,4.15
2022-07-28T19:13:50.276Z,4.18
2022-07-28T19:16:17.344Z,4.37
2022-07-28T19:18:44.194Z,4.05
2022-07-28T19:21:11.137Z,3.92
2022-07-28T19:23:38.256Z,4.28
2022-07-28T19:26:05.157Z,4.28
2022-07-28T19:28:32.376Z,3.67
2022-07-28T19:31:10.112Z,3.60
2022-07-28T19:33:37.667Z,3.95
2022-07-28T19:36:11.217Z,3.70
2022-07-28T19:38:38.136Z,3.78
2022-07-28T19:41:04.955Z,3.92
2022-07-28T19:43:32.056Z,4.05
2022-07-28T19:46:00.333Z,3.33
2022-07-28T19:48:27.457Z,3.65
2022-07-28T19:50:54.675Z,3.85
2022-07-28T19:53:25.111Z,3.40
2022-07-28T19:55:58.572Z,3.62
2022-07-28T19:58:25.505Z,3.92
2022-07-28T20:00:52.682Z,3.80
2022-07-28T20:04:01.759Z,3.53
2022-07-28T20:06:07.684Z,4.05
2022-07-28T20:08:34.502Z,3.75
2022-07-28T20:11:01.615Z,3.87
2022-07-28T20:13:28.555Z,3.80
2022-07-28T20:15:55.956Z,3.78
2022-07-28T20:18:22.706Z,4.00
2022-07-28T20:20:49.595Z,3.47
2022-07-28T20:23:16.574Z,4.40
2022-07-28T20:25:45.437Z,3.90
2022-07-28T20:28:12.607Z,4.55
2022-07-28T20:30:40.226Z,5.00
2022-07-28T20:33:08.285Z,4.85
2022-07-28T20:35:35.337Z,4.15
2022-07-28T20:38:03.196Z,4.57
2022-07-28T20:40:30.325Z,3.87
2022-07-28T20:42:57.113Z,4.05
2022-07-28T20:45:24.014Z,3.92
2022-07-28T20:47:50.794Z,4.20
2022-07-28T20:50:18.005Z,4.87
2022-07-28T20:52:44.875Z,4.75
2022-07-28T20:55:12.577Z,4.03
2022-07-28T20:57:39.517Z,5.15
2022-07-28T21:00:07.286Z,4.90
2022-07-28T21:02:34.376Z,4.45
2022-07-28T21:05:01.368Z,4.35
2022-07-28T21:08:04.611Z,4.03
2022-07-28T21:10:15.045Z,4.65
2022-07-28T21:12:42.037Z,4.35
2022-07-28T21:15:09.684Z,4.18
2022-07-28T21:17:37.126Z,3.78
2022-07-28T21:20:05.130Z,4.40
2022-07-28T21:22:32.007Z,4.65
2022-07-28T21:24:59.398Z,4.47
2022-07-28T21:27:26.397Z,3.92
2022-07-28T21:32:19.223Z,5.22
2022-07-28T21:34:46.174Z,5.10
2022-07-28T21:37:13.918Z,5.03
2022-07-28T21:39:40.803Z,4.28
2022-07-28T21:42:08.730Z,3.78
2022-07-28T21:44:37.135Z,4.62
2022-07-28T21:47:04.468Z,4.82
2022-07-28T21:49:32.621Z,3.78
2022-07-28T21:51:59.819Z,4.28
2022-07-28T21:54:26.661Z,4.30
2022-07-28T21:56:53.476Z,4.85
2022-07-28T21:59:20.336Z,4.40
2022-07-28T22:01:47.919Z,4.30
2022-07-28T22:04:15.399Z,4.60
2022-07-28T22:06:46.183Z,5.20
2022-07-28T22:09:14.929Z,4.90
2022-07-28T22:11:42.246Z,4.65
2022-07-28T22:14:09.674Z,4.43
2022-07-28T22:16:36.548Z,5.07
2022-07-28T22:19:04.005Z,4.18
2022-07-28T22:21:31.339Z,4.60
2022-07-28T22:23:58.171Z,4.40
2022-07-28T22:26:25.143Z,4.82
2022-07-28T22:28:52.000Z,4.30
2022-07-28T22:31:18.929Z,4.35
2022-07-28T22:33:45.804Z,4.43
2022-07-28T22:36:12.756Z,4.60
2022-07-28T22:38:39.521Z,3.97
2022-07-28T22:41:06.392Z,4.72
2022-07-28T22:43:34.081Z,4.40
2022-07-28T22:46:01.271Z,3.80
2022-07-28T22:48:28.530Z,3.90
2022-07-28T22:50:55.820Z,4.97
2022-07-28T22:53:22.651Z,5.05
2022-07-28T22:55:49.535Z,4.43
2022-07-28T22:58:16.426Z,4.07
2022-07-28T23:00:43.886Z,3.78
2022-07-28T23:03:13.256Z,3.60
2022-07-28T23:05:40.452Z,3.78
2022-07-28T23:08:07.439Z,3.58
2022-07-28T23:10:34.868Z,3.95
2022-07-28T23:13:02.187Z,4.30
2022-07-28T23:15:41.214Z,4.65
2022-07-28T23:20:39.327Z,4.10
2022-07-28T23:23:06.948Z,4.37
2022-07-28T23:25:39.761Z,4.30
2022-07-28T23:28:07.925Z,4.12
2022-07-28T23:30:35.090Z,4.35
2022-07-28T23:33:02.026Z,3.95
2022-07-28T23:35:29.026Z,3.87
2022-07-28T23:37:55.983Z,4.43
2022-07-28T23:40:23.045Z,3.90
2022-07-28T23:42:49.893Z,3.72
2022-07-28T23:45:16.825Z,4.50
2022-07-28T23:47:43.657Z,3.67
2022-07-28T23:50:10.866Z,4.57
2022-07-28T23:52:37.746Z,4.78
2022-07-28T23:55:05.295Z,4.07
2022-07-28T23:57:32.131Z,4.57
